createdAt,value
2019-02-21T00:00:59.881Z,20.60
2019-02-21T00:03:29.173Z,18.90
2019-02-21T00:06:02.529Z,18.70
2019-02-21T00:08:32.356Z,19.93
2019-02-21T00:11:03.335Z,17.90
2019-02-21T00:13:32.240Z,22.00
2019-02-21T00:16:02.200Z,21.27
2019-02-21T00:18:31.036Z,17.53
2019-02-21T00:20:59.879Z,16.87
2019-02-21T00:23:29.052Z,19.33
2019-02-21T00:26:03.446Z,21.53
2019-02-21T00:28:34.278Z,17.53
2019-02-21T00:31:03.114Z,21.60
2019-02-21T00:33:32.492Z,16.93
2019-02-21T00:36:01.572Z,17.50
2019-02-21T00:38:31.412Z,17.20
2019-02-21T00:41:01.418Z,18.80
2019-02-21T00:43:30.708Z,18.83
2019-02-21T00:46:00.264Z,16.90
2019-02-21T00:48:30.814Z,15.33
2019-02-21T00:51:00.043Z,17.83
2019-02-21T00:53:28.916Z,16.93
2019-02-21T00:55:58.061Z,16.70
2019-02-21T00:58:27.727Z,19.97
2019-02-21T01:00:57.239Z,18.33
2019-02-21T01:03:26.213Z,19.97
2019-02-21T01:05:55.009Z,18.10
2019-02-21T01:08:23.962Z,22.23
2019-02-21T01:10:52.967Z,18.90
2019-02-21T01:13:21.964Z,17.50
2019-02-21T01:15:52.070Z,18.90
2019-02-21T01:18:35.194Z,19.83
2019-02-21T01:21:04.111Z,16.40
2019-02-21T01:26:07.941Z,17.57
2019-02-21T01:28:37.638Z,17.23
2019-02-21T01:31:09.631Z,19.87
2019-02-21T01:33:40.313Z,17.77
2019-02-21T01:36:12.009Z,20.30
2019-02-21T01:38:40.892Z,18.90
2019-02-21T01:41:09.861Z,18.93
2019-02-21T01:43:39.555Z,18.80
2019-02-21T01:46:08.510Z,18.37
2019-02-21T01:48:37.467Z,18.17
2019-02-21T01:51:08.470Z,20.20
2019-02-21T01:53:37.582Z,20.27
2019-02-21T01:56:06.591Z,19.40
2019-02-21T01:58:35.461Z,20.10
2019-02-21T02:01:08.511Z,21.73
2019-02-21T02:03:36.691Z,21.87
2019-02-21T02:06:05.611Z,20.30
2019-02-21T02:08:35.145Z,21.40
2019-02-21T02:11:06.153Z,20.50
2019-02-21T02:13:38.728Z,20.20
2019-02-21T02:16:07.640Z,21.57
2019-02-21T02:18:36.498Z,18.80
2019-02-21T02:21:06.158Z,22.07
2019-02-21T02:23:35.010Z,22.60
2019-02-21T02:26:04.169Z,23.07
2019-02-21T02:28:33.176Z,22.13
2019-02-21T02:31:02.523Z,22.00
2019-02-21T02:33:31.579Z,20.73
2019-02-21T02:39:20.297Z,20.90
2019-02-21T02:41:49.142Z,22.57
2019-02-21T02:44:18.069Z,21.30
2019-02-21T02:46:47.089Z,22.47
2019-02-21T02:49:16.235Z,21.40
2019-02-21T02:51:45.129Z,21.53
2019-02-21T02:54:14.905Z,25.60
2019-02-21T02:56:44.097Z,21.20
2019-02-21T02:59:15.285Z,21.80
2019-02-21T03:01:44.560Z,20.33
2019-02-21T03:04:13.941Z,22.47
2019-02-21T03:06:43.137Z,20.63
2019-02-21T03:09:12.700Z,24.20
2019-02-21T03:14:12.555Z,21.73
2019-02-21T03:16:41.448Z,22.90
2019-02-21T03:19:10.615Z,23.13
2019-02-21T03:21:39.903Z,20.23
2019-02-21T03:24:08.817Z,23.07
2019-02-21T03:26:40.766Z,20.77
2019-02-21T03:29:09.620Z,20.27
2019-02-21T03:31:53.309Z,20.03
2019-02-21T03:34:30.009Z,22.43
2019-02-21T03:36:59.006Z,20.37
2019-02-21T03:39:27.994Z,20.63
2019-02-21T03:41:57.152Z,25.47
2019-02-21T03:44:26.253Z,21.67
2019-02-21T03:46:55.775Z,24.07
2019-02-21T03:49:24.653Z,24.40
2019-02-21T03:51:54.766Z,21.53
2019-02-21T03:54:24.519Z,21.57
2019-02-21T03:56:53.964Z,23.30
2019-02-21T03:59:22.891Z,23.40
2019-02-21T04:01:51.911Z,22.73
2019-02-21T04:04:20.836Z,23.23
2019-02-21T04:06:54.045Z,20.77
2019-02-21T04:09:23.259Z,22.37
2019-02-21T04:11:52.637Z,23.40
2019-02-21T04:14:21.617Z,23.30
2019-02-21T04:16:57.826Z,24.63
2019-02-21T04:19:26.752Z,24.40
2019-02-21T04:21:55.675Z,23.63
2019-02-21T04:24:25.363Z,23.00
2019-02-21T04:26:54.597Z,26.43
2019-02-21T04:29:23.827Z,26.33
2019-02-21T04:31:52.748Z,25.20
2019-02-21T04:34:21.636Z,22.93
2019-02-21T04:36:50.530Z,23.63
2019-02-21T04:39:19.555Z,23.93
2019-02-21T04:41:49.623Z,23.03
2019-02-21T04:44:18.519Z,23.70
2019-02-21T04:46:48.243Z,26.20
2019-02-21T04:49:17.162Z,27.43
2019-02-21T04:51:46.135Z,26.70
2019-02-21T04:56:51.274Z,29.33
2019-02-21T04:59:34.654Z,29.83
2019-02-21T05:02:03.504Z,31.57
2019-02-21T05:04:32.768Z,32.23
2019-02-21T05:07:01.693Z,28.70
2019-02-21T05:09:34.032Z,33.47
2019-02-21T05:12:02.976Z,33.73
2019-02-21T05:14:31.839Z,33.10
2019-02-21T05:17:00.816Z,34.00
2019-02-21T05:19:30.428Z,32.83
2019-02-21T05:21:59.343Z,34.67
2019-02-21T05:24:28.271Z,34.17
2019-02-21T05:27:03.698Z,32.07
2019-02-21T05:29:32.823Z,35.23
2019-02-21T05:32:41.258Z,34.37
2019-02-21T05:35:32.410Z,32.10
2019-02-21T05:38:19.283Z,35.13
2019-02-21T05:41:10.230Z,34.87
2019-02-21T05:44:16.278Z,35.83
2019-02-21T05:46:50.605Z,36.00
2019-02-21T05:49:41.139Z,35.53
2019-02-21T05:52:18.496Z,36.73
2019-02-21T05:55:09.507Z,37.83
2019-02-21T05:57:54.627Z,35.13
2019-02-21T06:00:45.503Z,38.07
2019-02-21T06:03:40.115Z,34.07
2019-02-21T06:06:46.482Z,35.10
2019-02-21T06:09:23.638Z,35.53
2019-02-21T06:12:33.530Z,37.07
2019-02-21T06:15:19.038Z,39.77
2019-02-21T06:18:01.352Z,39.53
2019-02-21T06:20:57.644Z,35.73
2019-02-21T06:24:01.805Z,35.80
2019-02-21T06:26:39.622Z,36.37
2019-02-21T06:29:36.639Z,33.60
2019-02-21T06:32:14.296Z,37.57
2019-02-21T06:34:39.496Z,40.10
2019-02-21T06:37:12.683Z,36.57
2019-02-21T06:39:41.464Z,36.77
2019-02-21T06:42:14.252Z,35.40
2019-02-21T06:44:43.327Z,39.30
2019-02-21T06:47:12.565Z,36.57
2019-02-21T06:49:41.480Z,34.70
2019-02-21T06:52:10.395Z,37.40
2019-02-21T06:54:39.312Z,39.37
2019-02-21T07:00:39.699Z,39.20
2019-02-21T07:03:15.858Z,39.43
2019-02-21T07:05:39.901Z,36.87
2019-02-21T07:08:09.701Z,42.50
2019-02-21T07:10:38.603Z,38.10
2019-02-21T07:13:11.127Z,39.80
2019-02-21T07:15:40.847Z,38.77
2019-02-21T07:18:11.158Z,43.90
2019-02-21T07:21:13.356Z,41.33
2019-02-21T07:23:49.929Z,38.87
2019-02-21T07:26:23.568Z,41.13
2019-02-21T07:28:52.620Z,39.50
2019-02-21T07:31:28.726Z,39.83
2019-02-21T07:33:52.804Z,43.50
2019-02-21T07:36:21.824Z,39.33
2019-02-21T07:38:51.086Z,41.00
2019-02-21T07:41:20.187Z,39.67
2019-02-21T07:43:50.648Z,39.00
2019-02-21T07:46:19.636Z,40.20
2019-02-21T07:48:48.554Z,42.67
2019-02-21T07:51:19.673Z,41.83
2019-02-21T07:53:48.847Z,40.97
2019-02-21T07:56:17.819Z,40.80
2019-02-21T07:58:46.651Z,40.13
2019-02-21T08:01:17.453Z,45.57
2019-02-21T08:03:48.459Z,43.40
2019-02-21T08:06:19.582Z,40.50
2019-02-21T08:08:47.548Z,39.93
2019-02-21T08:11:16.545Z,42.47
2019-02-21T08:13:45.630Z,40.50
2019-02-21T08:16:14.811Z,43.53
2019-02-21T08:18:43.802Z,39.90
2019-02-21T08:21:43.226Z,43.03
2019-02-21T08:24:10.803Z,37.33
2019-02-21T08:26:46.160Z,41.97
2019-02-21T08:29:15.141Z,38.77
2019-02-21T08:31:44.155Z,41.17
2019-02-21T08:34:20.411Z,38.67
2019-02-21T08:36:49.635Z,38.13
2019-02-21T08:39:19.382Z,38.87
2019-02-21T08:41:50.006Z,40.60
2019-02-21T08:44:19.267Z,37.33
2019-02-21T08:46:48.690Z,40.03
2019-02-21T08:49:18.674Z,41.00
2019-02-21T08:51:48.013Z,33.50
2019-02-21T08:54:19.118Z,39.83
2019-02-21T08:57:14.929Z,41.47
2019-02-21T08:59:47.221Z,38.73
2019-02-21T09:02:16.202Z,34.30
2019-02-21T09:04:45.524Z,37.97
2019-02-21T09:07:14.620Z,38.07
2019-02-21T09:09:43.873Z,40.57
2019-02-21T09:12:12.908Z,38.37
2019-02-21T09:14:42.275Z,37.80
2019-02-21T09:17:12.099Z,39.27
2019-02-21T09:19:41.994Z,39.33
2019-02-21T09:22:10.938Z,40.37
2019-02-21T09:24:42.378Z,42.27
2019-02-21T09:27:10.768Z,43.13
2019-02-21T09:29:42.881Z,40.37
2019-02-21T09:32:12.306Z,40.40
2019-02-21T09:34:41.437Z,40.83
2019-02-21T09:37:10.457Z,40.10
2019-02-21T09:39:39.830Z,41.67
2019-02-21T09:42:08.986Z,43.70
2019-02-21T09:44:38.028Z,40.03
2019-02-21T09:47:07.703Z,39.63
2019-02-21T09:49:36.766Z,42.13
2019-02-21T09:52:05.938Z,38.57
2019-02-21T09:54:35.238Z,41.93
2019-02-21T09:57:12.735Z,38.90
2019-02-21T09:59:35.324Z,38.20
2019-02-21T10:02:04.367Z,40.40
2019-02-21T10:04:34.367Z,36.57
2019-02-21T10:07:03.612Z,42.00
2019-02-21T10:09:35.091Z,34.73
2019-02-21T10:12:07.095Z,38.30
2019-02-21T10:14:36.855Z,38.50
2019-02-21T10:17:05.830Z,37.77
2019-02-21T10:19:36.625Z,43.33
2019-02-21T10:22:05.572Z,41.93
2019-02-21T10:24:34.531Z,43.83
2019-02-21T10:27:09.791Z,44.17
2019-02-21T10:29:41.843Z,39.50
2019-02-21T10:32:11.324Z,39.40
2019-02-21T10:34:43.319Z,39.43
2019-02-21T10:37:11.927Z,39.93
2019-02-21T10:39:42.903Z,45.37
2019-02-21T10:42:11.874Z,37.20
2019-02-21T10:44:42.113Z,36.93
2019-02-21T10:47:11.091Z,28.67
2019-02-21T10:49:40.297Z,30.67
2019-02-21T10:52:09.345Z,32.63
2019-02-21T10:54:44.127Z,27.10
2019-02-21T10:57:19.194Z,28.87
2019-02-21T10:59:48.662Z,27.07
2019-02-21T11:02:17.904Z,27.77
2019-02-21T11:04:54.927Z,20.63
2019-02-21T11:07:19.973Z,23.53
2019-02-21T11:09:50.993Z,22.87
2019-02-21T11:12:21.157Z,22.60
2019-02-21T11:14:50.373Z,21.50
2019-02-21T11:17:21.153Z,15.17
2019-02-21T11:19:51.254Z,14.87
2019-02-21T11:22:20.102Z,19.40
2019-02-21T11:24:49.306Z,17.97
2019-02-21T11:27:19.017Z,16.50
2019-02-21T11:29:50.621Z,16.00
2019-02-21T11:32:21.471Z,18.27
2019-02-21T11:34:51.019Z,20.00
2019-02-21T11:37:20.040Z,19.70
2019-02-21T11:39:49.013Z,24.65
2019-02-21T11:42:17.969Z,23.70
2019-02-21T11:44:47.570Z,22.15
2019-02-21T11:47:16.888Z,13.13
2019-02-21T11:49:47.621Z,11.50
2019-02-21T11:52:17.245Z,9.70
2019-02-21T11:54:46.497Z,10.67
2019-02-21T11:57:15.521Z,12.17
2019-02-21T11:59:44.522Z,12.63
2019-02-21T12:02:14.637Z,12.37
2019-02-21T12:04:43.960Z,16.52
2019-02-21T12:07:13.775Z,15.05
2019-02-21T12:09:44.121Z,18.35
2019-02-21T12:12:13.463Z,17.13
2019-02-21T12:14:44.011Z,16.47
2019-02-21T12:17:13.011Z,19.10
2019-02-21T12:19:42.433Z,13.48
2019-02-21T12:22:11.706Z,19.73
2019-02-21T12:24:41.530Z,20.37
2019-02-21T12:27:11.084Z,16.93
2019-02-21T12:29:44.027Z,17.73
2019-02-21T12:32:13.020Z,23.27
2019-02-21T12:34:42.556Z,26.03
2019-02-21T12:37:11.672Z,20.03
2019-02-21T12:39:44.043Z,26.73
2019-02-21T12:42:15.123Z,21.80
2019-02-21T12:44:44.051Z,25.93
2019-02-21T12:47:13.649Z,24.10
2019-02-21T12:49:42.965Z,26.57
2019-02-21T12:52:18.458Z,31.10
2019-02-21T12:54:47.590Z,21.17
2019-02-21T12:57:16.545Z,26.80
2019-02-21T12:59:45.664Z,28.73
2019-02-21T13:02:18.388Z,27.83
2019-02-21T13:04:47.757Z,28.70
2019-02-21T13:07:16.652Z,26.93
2019-02-21T13:09:45.941Z,29.27
2019-02-21T13:12:15.175Z,29.67
2019-02-21T13:14:44.100Z,30.60
2019-02-21T13:17:13.382Z,29.27
2019-02-21T13:19:44.430Z,25.97
2019-02-21T13:22:19.573Z,33.20
2019-02-21T13:24:48.510Z,34.07
2019-02-21T13:27:17.863Z,38.07
2019-02-21T13:29:50.171Z,33.03
2019-02-21T13:32:19.094Z,36.23
2019-02-21T13:34:48.009Z,35.83
2019-02-21T13:37:27.948Z,39.77
2019-02-21T13:39:49.896Z,35.93
2019-02-21T13:42:22.166Z,44.73
2019-02-21T13:44:51.173Z,37.83
2019-02-21T13:47:22.859Z,31.90
2019-02-21T13:49:51.817Z,34.37
2019-02-21T13:52:22.909Z,39.40
2019-02-21T13:54:54.833Z,46.17
2019-02-21T13:57:25.653Z,44.27
2019-02-21T13:59:54.674Z,46.77
2019-02-21T14:02:26.328Z,43.90
2019-02-21T14:04:55.630Z,46.43
2019-02-21T14:07:24.919Z,51.80
2019-02-21T14:09:53.932Z,50.53
2019-02-21T14:12:23.038Z,51.40
2019-02-21T14:14:51.966Z,52.67
2019-02-21T14:17:25.876Z,49.23
2019-02-21T14:19:54.913Z,46.17
2019-02-21T14:22:23.943Z,51.87
2019-02-21T14:24:52.952Z,54.40
2019-02-21T14:27:22.249Z,49.93
2019-02-21T14:30:01.031Z,53.93
2019-02-21T14:32:31.958Z,55.90
2019-02-21T14:35:01.179Z,58.80
2019-02-21T14:37:30.732Z,58.60
2019-02-21T14:39:59.784Z,59.63
2019-02-21T14:42:28.806Z,58.30
2019-02-21T14:44:58.392Z,56.03
2019-02-21T14:47:28.142Z,56.17
2019-02-21T14:49:57.402Z,62.93
2019-02-21T14:52:26.746Z,61.23
2019-02-21T14:54:56.234Z,57.50
2019-02-21T14:57:25.185Z,61.67
2019-02-21T14:59:54.181Z,55.73
2019-02-21T15:02:23.440Z,58.47
2019-02-21T15:04:52.904Z,61.60
2019-02-21T15:07:21.967Z,61.33
2019-02-21T15:09:53.090Z,70.80
2019-02-21T15:12:22.351Z,63.53
2019-02-21T15:14:51.296Z,59.30
2019-02-21T15:17:21.974Z,55.70
2019-02-21T15:19:51.160Z,57.80
2019-02-21T15:22:25.337Z,59.30
2019-02-21T15:24:54.503Z,68.27
2019-02-21T15:27:23.659Z,69.77
2019-02-21T15:29:52.985Z,66.90
2019-02-21T15:32:22.108Z,63.53
2019-02-21T15:34:54.233Z,72.40
2019-02-21T15:37:26.387Z,69.77
2019-02-21T15:39:55.408Z,67.30
2019-02-21T15:42:24.374Z,63.13
2019-02-21T15:44:53.720Z,52.57
2019-02-21T15:47:27.214Z,63.57
2019-02-21T15:49:56.551Z,66.37
2019-02-21T15:52:25.506Z,62.80
2019-02-21T15:54:57.855Z,69.77
2019-02-21T15:57:29.655Z,75.17
2019-02-21T15:59:58.908Z,63.40
2019-02-21T16:02:31.135Z,60.77
2019-02-21T16:05:00.168Z,66.37
2019-02-21T16:07:32.774Z,62.87
2019-02-21T16:10:02.281Z,68.43
2019-02-21T16:12:31.716Z,67.70
2019-02-21T16:15:00.840Z,64.40
2019-02-21T16:17:30.555Z,71.97
2019-02-21T16:19:59.864Z,71.90
2019-02-21T16:22:32.948Z,66.80
2019-02-21T16:25:02.271Z,63.13
2019-02-21T16:27:32.279Z,74.07
2019-02-21T16:30:01.870Z,78.43
2019-02-21T16:32:31.177Z,71.33
2019-02-21T16:35:01.969Z,73.43
2019-02-21T16:37:34.872Z,67.00
2019-02-21T16:40:03.889Z,60.77
2019-02-21T16:42:33.228Z,70.07
2019-02-21T16:45:02.841Z,61.37
2019-02-21T16:47:32.676Z,62.80
2019-02-21T16:50:01.633Z,71.97
2019-02-21T16:52:36.673Z,59.33
2019-02-21T16:55:04.973Z,64.77
2019-02-21T16:57:36.901Z,69.03
2019-02-21T17:00:06.595Z,60.73
2019-02-21T17:02:35.597Z,73.47
2019-02-21T17:05:07.033Z,66.53
2019-02-21T17:07:35.993Z,59.90
2019-02-21T17:10:05.390Z,64.03
2019-02-21T17:12:37.014Z,59.30
2019-02-21T17:15:05.955Z,71.20
2019-02-21T17:17:34.946Z,65.93
2019-02-21T17:20:07.607Z,58.20
2019-02-21T17:22:39.115Z,59.37
2019-02-21T17:25:09.236Z,58.27
2019-02-21T17:27:38.659Z,63.83
2019-02-21T17:30:12.567Z,56.60
2019-02-21T17:32:42.311Z,61.50
2019-02-21T17:37:48.004Z,66.72
2019-02-21T17:40:18.481Z,60.20
2019-02-21T17:42:47.699Z,62.57
2019-02-21T17:45:17.411Z,63.03
2019-02-21T17:47:51.523Z,60.77
2019-02-21T17:50:20.519Z,53.77
2019-02-21T17:52:49.508Z,57.67
2019-02-21T17:55:18.624Z,61.67
2019-02-21T17:57:48.717Z,57.47
2019-02-21T18:00:21.459Z,63.60
2019-02-21T18:02:50.780Z,59.93
2019-02-21T18:07:55.476Z,61.23
2019-02-21T18:10:24.609Z,58.10
2019-02-21T18:12:53.923Z,56.67
2019-02-21T18:15:23.225Z,60.63
2019-02-21T18:17:54.969Z,62.17
2019-02-21T18:20:24.437Z,57.20
2019-02-21T18:22:53.796Z,51.30
2019-02-21T18:25:32.709Z,57.87
2019-02-21T18:28:04.865Z,69.33
2019-02-21T18:30:33.959Z,54.17
2019-02-21T18:33:05.675Z,58.07
2019-02-21T18:35:34.757Z,53.47
2019-02-21T18:38:06.819Z,52.73
2019-02-21T18:40:36.011Z,52.53
2019-02-21T18:43:08.108Z,55.57
2019-02-21T18:45:37.206Z,58.63
2019-02-21T18:48:06.391Z,60.57
2019-02-21T18:53:50.542Z,54.73
2019-02-21T18:56:19.871Z,46.30
2019-02-21T18:58:49.403Z,54.27
2019-02-21T19:01:19.466Z,51.60
2019-02-21T19:03:48.460Z,50.20
2019-02-21T19:06:17.368Z,53.60
2019-02-21T19:08:46.774Z,49.33
2019-02-21T19:11:16.608Z,48.57
2019-02-21T19:13:45.592Z,59.77
2019-02-21T19:16:16.646Z,55.00
2019-02-21T19:18:46.184Z,52.07
2019-02-21T19:21:16.044Z,57.90
2019-02-21T19:23:45.264Z,49.13
2019-02-21T19:26:17.310Z,54.67
2019-02-21T19:28:46.291Z,52.90
2019-02-21T19:31:18.421Z,53.23
2019-02-21T19:33:47.307Z,53.93
2019-02-21T19:36:19.419Z,47.07
2019-02-21T19:38:48.451Z,50.60
2019-02-21T19:41:17.468Z,50.80
2019-02-21T19:43:48.150Z,48.60
2019-02-21T19:46:17.366Z,48.53
2019-02-21T19:48:46.313Z,56.33
2019-02-21T19:51:15.451Z,46.90
2019-02-21T19:53:44.379Z,50.33
2019-02-21T19:56:13.768Z,49.70
2019-02-21T19:58:42.729Z,46.50
2019-02-21T20:01:12.565Z,53.77
2019-02-21T20:03:44.601Z,49.20
2019-02-21T20:06:14.050Z,41.17
2019-02-21T20:08:43.227Z,52.57
2019-02-21T20:11:12.134Z,49.33
2019-02-21T20:13:41.413Z,45.20
2019-02-21T20:16:10.693Z,48.40
2019-02-21T20:18:40.161Z,48.60
2019-02-21T20:21:09.060Z,50.20
2019-02-21T20:23:37.983Z,53.60
2019-02-21T20:26:17.984Z,55.20
2019-02-21T20:28:40.419Z,47.40
2019-02-21T20:31:09.720Z,44.57
2019-02-21T20:33:38.791Z,49.00
2019-02-21T20:36:07.726Z,50.30
2019-02-21T20:38:40.806Z,51.47
2019-02-21T20:41:09.880Z,51.00
2019-02-21T20:43:39.831Z,48.73
2019-02-21T20:46:08.916Z,49.93
2019-02-21T20:48:38.517Z,46.00
2019-02-21T20:51:10.138Z,48.37
2019-02-21T20:53:39.118Z,57.37
2019-02-21T20:56:08.516Z,45.40
2019-02-21T20:58:37.554Z,53.70
2019-02-21T21:01:08.186Z,51.10
2019-02-21T21:03:37.169Z,51.47
2019-02-21T21:06:09.335Z,43.57
2019-02-21T21:08:43.151Z,47.00
2019-02-21T21:11:09.465Z,49.90
2019-02-21T21:13:38.737Z,52.90
2019-02-21T21:16:07.653Z,49.33
2019-02-21T21:18:39.683Z,54.00
2019-02-21T21:21:37.066Z,48.13
2019-02-21T21:24:09.132Z,47.07
2019-02-21T21:26:43.553Z,49.33
2019-02-21T21:29:14.350Z,48.80
2019-02-21T21:31:43.774Z,52.87
2019-02-21T21:34:13.278Z,53.27
2019-02-21T21:36:42.280Z,57.83
2019-02-21T21:39:11.993Z,59.03
2019-02-21T21:41:41.008Z,51.03
2019-02-21T21:44:10.068Z,53.00
2019-02-21T21:46:42.621Z,53.07
2019-02-21T21:49:11.665Z,54.17
2019-02-21T21:51:40.700Z,51.70
2019-02-21T21:54:09.832Z,53.30
2019-02-21T21:56:43.127Z,50.07
2019-02-21T21:59:15.358Z,56.20
2019-02-21T22:01:44.475Z,59.07
2019-02-21T22:04:17.372Z,53.00
2019-02-21T22:06:46.423Z,48.97
2019-02-21T22:11:51.612Z,52.63
2019-02-21T22:14:22.117Z,50.50
2019-02-21T22:16:51.596Z,53.63
2019-02-21T22:19:20.901Z,49.30
2019-02-21T22:21:50.137Z,55.73
2019-02-21T22:24:22.383Z,60.20
2019-02-21T22:26:51.589Z,52.33
2019-02-21T22:29:20.812Z,50.33
2019-02-21T22:31:49.751Z,58.43
2019-02-21T22:36:59.726Z,57.50
2019-02-21T22:39:28.725Z,53.70
2019-02-21T22:42:00.904Z,55.47
2019-02-21T22:44:30.562Z,65.63
2019-02-21T22:46:59.696Z,56.77
2019-02-21T22:49:31.653Z,53.13
2019-02-21T22:52:03.927Z,58.23
2019-02-21T22:54:36.157Z,60.10
2019-02-21T22:57:05.377Z,60.40
2019-02-21T22:59:36.640Z,61.17
2019-02-21T23:02:08.409Z,60.13
2019-02-21T23:04:49.156Z,54.93
2019-02-21T23:07:40.791Z,59.13
2019-02-21T23:10:10.054Z,53.43
2019-02-21T23:12:39.061Z,57.87
2019-02-21T23:15:08.717Z,54.50
2019-02-21T23:17:37.941Z,57.90
2019-02-21T23:20:08.743Z,58.60
2019-02-21T23:22:37.988Z,57.77
2019-02-21T23:25:08.224Z,59.13
2019-02-21T23:31:32.706Z,55.03
2019-02-21T23:34:01.741Z,52.93
2019-02-21T23:36:30.937Z,52.60
2019-02-21T23:39:02.687Z,58.63
2019-02-21T23:41:39.709Z,53.73
2019-02-21T23:44:08.730Z,55.80
2019-02-21T23:46:38.114Z,60.73
2019-02-21T23:49:10.363Z,52.57
2019-02-21T23:51:40.547Z,52.50
2019-02-21T23:54:09.434Z,48.97
2019-02-21T23:56:38.458Z,50.03
2019-02-21T23:59:07.371Z,50.80
